createdAt,value
2018-03-25T00:00:11.112Z,5.95
2018-03-25T00:01:11.138Z,5.95
2018-03-25T00:02:11.072Z,5.93
2018-03-25T00:03:11.051Z,5.95
2018-03-25T00:04:11.325Z,5.91
2018-03-25T00:05:11.003Z,5.88
2018-03-25T00:06:10.979Z,5.95
2018-03-25T00:07:11.007Z,5.88
2018-03-25T00:08:10.939Z,5.82
2018-03-25T00:09:10.916Z,5.87
2018-03-25T00:10:11.210Z,5.90
2018-03-25T00:11:10.885Z,5.76
2018-03-25T00:12:10.957Z,5.82
2018-03-25T00:13:10.894Z,5.79
2018-03-25T00:14:10.818Z,5.77
2018-03-25T00:15:10.799Z,5.82
2018-03-25T00:21:11.428Z,5.62
2018-03-25T00:22:10.663Z,5.66
2018-03-25T00:23:12.203Z,5.75
2018-03-25T00:24:10.623Z,5.70
2018-03-25T00:25:10.602Z,5.77
2018-03-25T00:26:10.582Z,5.72
2018-03-25T00:27:10.620Z,5.72
2018-03-25T00:28:10.898Z,5.66
2018-03-25T00:29:10.669Z,5.70
2018-03-25T00:30:10.509Z,5.61
2018-03-25T00:31:10.479Z,5.67
2018-03-25T00:32:10.458Z,5.62
2018-03-25T00:37:11.005Z,5.66
2018-03-25T00:38:10.329Z,5.70
2018-03-25T00:39:10.313Z,5.69
2018-03-25T00:40:10.304Z,5.66
2018-03-25T00:41:10.273Z,5.65
2018-03-25T00:42:10.296Z,5.61
2018-03-25T00:43:10.285Z,5.62
2018-03-25T00:44:10.517Z,5.61
2018-03-25T00:45:10.191Z,5.61
2018-03-25T00:46:10.170Z,5.62
2018-03-25T00:47:10.215Z,5.62
2018-03-25T00:53:10.383Z,5.55
2018-03-25T00:54:10.107Z,5.51
2018-03-25T00:55:09.985Z,5.52
2018-03-25T00:56:09.959Z,5.57
2018-03-25T00:57:10.043Z,5.54
2018-03-25T00:58:10.075Z,5.52
2018-03-25T01:01:10.186Z,5.52
2018-03-25T01:02:09.849Z,5.51
2018-03-25T01:03:09.922Z,5.48
2018-03-25T01:04:09.796Z,5.47
2018-03-25T01:05:09.880Z,5.50
2018-03-25T01:06:09.816Z,5.47
2018-03-25T01:08:10.039Z,5.40
2018-03-25T01:09:09.748Z,5.34
2018-03-25T01:10:09.695Z,5.40
2018-03-25T01:11:09.650Z,5.40
2018-03-25T01:12:09.673Z,5.33
2018-03-25T01:13:09.624Z,5.37
2018-03-25T01:14:09.957Z,5.36
2018-03-25T01:15:09.925Z,5.27
2018-03-25T01:16:09.561Z,5.33
2018-03-25T01:17:09.527Z,5.34
2018-03-25T01:18:09.609Z,5.32
2018-03-25T01:19:09.486Z,5.34
2018-03-25T01:20:09.767Z,5.29
2018-03-25T01:21:09.511Z,5.32
2018-03-25T01:22:09.484Z,5.27
2018-03-25T01:23:09.410Z,5.37
2018-03-25T01:24:09.393Z,5.27
2018-03-25T01:25:09.371Z,5.33
2018-03-25T01:26:09.647Z,5.30
2018-03-25T01:27:09.426Z,5.29
2018-03-25T01:28:09.304Z,5.22
2018-03-25T01:29:09.437Z,5.16
2018-03-25T01:30:09.265Z,5.19
2018-03-25T01:31:09.338Z,5.11
2018-03-25T01:32:09.521Z,5.22
2018-03-25T01:33:09.213Z,5.14
2018-03-25T01:34:09.178Z,5.22
2018-03-25T01:35:09.156Z,5.22
2018-03-25T01:36:09.142Z,5.14
2018-03-25T01:37:09.715Z,5.18
2018-03-25T01:38:09.406Z,5.14
2018-03-25T01:39:09.182Z,5.19
2018-03-25T01:40:09.151Z,5.21
2018-03-25T01:41:09.026Z,5.18
2018-03-25T01:42:09.016Z,5.14
2018-03-25T01:43:09.040Z,5.15
2018-03-25T01:45:09.360Z,5.11
2018-03-25T01:46:08.980Z,5.04
2018-03-25T01:47:08.914Z,5.11
2018-03-25T01:48:08.893Z,5.00
2018-03-25T01:50:08.854Z,5.03
2018-03-25T01:51:08.822Z,4.98
2018-03-25T01:52:09.162Z,5.12
2018-03-25T01:53:08.791Z,5.04
2018-03-25T01:54:08.763Z,5.09
2018-03-25T01:55:08.746Z,5.01
2018-03-25T01:56:08.719Z,5.04
2018-03-25T01:57:08.703Z,5.00
2018-03-25T01:58:08.783Z,5.07
2018-03-25T01:59:08.955Z,5.03
2018-03-25T02:00:08.638Z,5.01
2018-03-25T02:01:08.622Z,5.00
2018-03-25T02:02:08.745Z,4.97
2018-03-25T02:03:08.676Z,5.01
2018-03-25T02:04:08.549Z,5.11
2018-03-25T02:05:08.538Z,5.04
2018-03-25T02:06:08.817Z,4.97
2018-03-25T02:08:08.573Z,5.07
2018-03-25T02:10:08.531Z,5.04
2018-03-25T02:11:08.411Z,5.06
2018-03-25T02:12:08.459Z,5.01
2018-03-25T02:13:08.739Z,5.01
2018-03-25T02:15:08.931Z,4.97
2018-03-25T02:16:08.455Z,4.94
2018-03-25T02:17:08.282Z,4.98
2018-03-25T02:18:10.126Z,4.96
2018-03-25T02:19:08.243Z,5.06
2018-03-25T02:20:08.616Z,5.00
2018-03-25T02:21:08.395Z,5.04
2018-03-25T02:22:08.329Z,5.04
2018-03-25T02:23:08.252Z,5.06
2018-03-25T02:25:08.121Z,5.07
2018-03-25T02:26:08.093Z,5.03
2018-03-25T02:27:08.419Z,5.09
2018-03-25T02:28:08.051Z,5.01
2018-03-25T02:29:08.042Z,5.09
2018-03-25T02:30:08.015Z,5.00
2018-03-25T02:31:08.089Z,4.98
2018-03-25T02:32:07.977Z,5.00
2018-03-25T02:33:08.245Z,4.97
2018-03-25T02:34:07.930Z,5.06
2018-03-25T02:39:08.271Z,4.94
2018-03-25T02:40:07.806Z,4.96
2018-03-25T02:41:07.887Z,4.85
2018-03-25T02:42:07.750Z,4.85
2018-03-25T02:43:07.733Z,4.88
2018-03-25T02:44:07.713Z,4.83
2018-03-25T02:45:08.044Z,4.74
2018-03-25T02:46:07.772Z,4.72
2018-03-25T02:48:07.668Z,4.59
2018-03-25T02:49:07.609Z,4.48
2018-03-25T02:50:07.577Z,4.42
2018-03-25T02:51:07.942Z,4.35
2018-03-25T02:52:07.557Z,4.27
2018-03-25T02:58:07.770Z,3.84
2018-03-25T02:59:07.990Z,3.74
2018-03-25T03:00:07.375Z,3.73
2018-03-25T03:01:07.347Z,3.72
2018-03-25T03:02:07.340Z,3.73
2018-03-25T03:03:07.311Z,3.64
2018-03-25T03:04:07.292Z,3.55
2018-03-25T03:05:07.622Z,3.45
2018-03-25T03:06:07.252Z,3.60
2018-03-25T03:07:07.223Z,3.56
2018-03-25T03:08:07.261Z,3.56
2018-03-25T03:09:07.183Z,3.42
2018-03-25T03:10:07.150Z,3.44
2018-03-25T03:11:07.144Z,3.41
2018-03-25T03:12:07.516Z,3.36
2018-03-25T03:13:07.141Z,3.26
2018-03-25T03:14:07.064Z,3.33
2018-03-25T03:15:07.038Z,3.25
2018-03-25T03:16:09.873Z,3.29
2018-03-25T03:17:06.997Z,3.20
2018-03-25T03:18:06.967Z,3.26
2018-03-25T03:19:07.300Z,3.20
2018-03-25T03:20:06.935Z,3.22
2018-03-25T03:21:06.965Z,3.23
2018-03-25T03:22:06.887Z,3.27
2018-03-25T03:23:06.862Z,3.18
2018-03-25T03:24:06.848Z,3.23
2018-03-25T03:25:06.925Z,3.15
2018-03-25T03:26:07.149Z,3.05
2018-03-25T03:27:06.881Z,3.14
2018-03-25T03:28:06.856Z,3.14
2018-03-25T03:32:07.190Z,3.04
2018-03-25T03:33:06.741Z,3.08
2018-03-25T03:35:06.645Z,3.09
2018-03-25T03:36:06.582Z,3.08
2018-03-25T03:37:06.552Z,3.11
2018-03-25T03:38:06.580Z,3.07
2018-03-25T03:39:06.806Z,3.15
2018-03-25T03:40:06.475Z,3.14
2018-03-25T03:41:06.464Z,3.09
2018-03-25T03:42:06.547Z,3.07
2018-03-25T03:43:06.465Z,3.14
2018-03-25T03:44:06.398Z,3.05
2018-03-25T03:45:06.427Z,3.05
2018-03-25T03:46:06.703Z,2.99
2018-03-25T03:47:06.329Z,2.99
2018-03-25T03:48:06.309Z,2.96
2018-03-25T03:49:06.278Z,2.96
2018-03-25T03:50:06.260Z,3.08
2018-03-25T03:51:06.234Z,3.05
2018-03-25T03:52:06.563Z,2.97
2018-03-25T03:53:06.195Z,2.97
2018-03-25T03:54:06.167Z,2.94
2018-03-25T03:55:06.252Z,2.93
2018-03-25T03:56:06.225Z,2.87
2018-03-25T03:57:06.100Z,2.73
2018-03-25T03:58:06.429Z,2.73
2018-03-25T03:59:06.157Z,2.90
2018-03-25T04:00:06.036Z,2.84
2018-03-25T04:01:06.069Z,2.81
2018-03-25T04:03:05.966Z,2.78
2018-03-25T04:04:06.039Z,2.78
2018-03-25T04:05:06.267Z,2.69
2018-03-25T04:06:05.939Z,2.69
2018-03-25T04:07:05.868Z,2.69
2018-03-25T04:08:05.855Z,2.58
2018-03-25T04:09:05.893Z,2.54
2018-03-25T04:10:05.806Z,2.54
2018-03-25T04:11:06.106Z,2.57
2018-03-25T04:12:06.015Z,2.60
2018-03-25T04:13:05.738Z,2.48
2018-03-25T04:16:05.675Z,2.42
2018-03-25T04:17:05.646Z,2.50
2018-03-25T04:18:05.962Z,2.39
2018-03-25T04:19:05.596Z,2.33
2018-03-25T04:20:05.573Z,2.21
2018-03-25T04:21:05.649Z,2.10
2018-03-25T04:22:05.528Z,2.18
2018-03-25T04:23:05.500Z,2.17
2018-03-25T04:24:05.777Z,2.01
2018-03-25T04:25:05.467Z,2.06
2018-03-25T04:26:05.432Z,1.92
2018-03-25T04:27:05.467Z,1.87
2018-03-25T04:28:05.397Z,1.89
2018-03-25T04:29:05.374Z,1.91
2018-03-25T04:30:05.352Z,1.91
2018-03-25T04:31:05.624Z,1.82
2018-03-25T04:32:05.295Z,1.81
2018-03-25T04:33:05.330Z,1.81
2018-03-25T04:34:05.263Z,1.75
2018-03-25T04:35:05.226Z,1.69
2018-03-25T04:36:05.257Z,1.64
2018-03-25T04:37:05.280Z,1.64
2018-03-25T04:38:05.452Z,1.63
2018-03-25T04:39:05.492Z,1.62
2018-03-25T04:40:05.111Z,1.59
2018-03-25T04:41:05.089Z,1.49
2018-03-25T04:42:05.266Z,1.48
2018-03-25T04:43:05.041Z,1.49
2018-03-25T04:44:05.017Z,1.46
2018-03-25T04:47:07.941Z,1.44
2018-03-25T04:48:05.016Z,1.53
2018-03-25T04:49:04.892Z,1.45
2018-03-25T04:50:04.876Z,1.49
2018-03-25T04:51:04.843Z,1.53
2018-03-25T04:53:05.115Z,1.59
2018-03-25T04:54:04.899Z,1.59
2018-03-25T04:55:04.752Z,1.62
2018-03-25T04:56:04.765Z,1.63
2018-03-25T04:57:04.719Z,1.59
2018-03-25T04:58:04.694Z,1.74
2018-03-25T04:59:04.657Z,1.67
2018-03-25T05:00:05.081Z,1.64
2018-03-25T05:01:04.615Z,1.71
2018-03-25T05:02:04.685Z,1.74
2018-03-25T05:03:05.024Z,1.84
2018-03-25T05:04:04.536Z,1.81
2018-03-25T05:05:04.509Z,1.78
2018-03-25T05:06:04.489Z,1.89
2018-03-25T05:07:04.767Z,1.81
2018-03-25T05:08:04.459Z,1.92
2018-03-25T05:09:04.522Z,1.93
2018-03-25T05:10:04.548Z,1.89
2018-03-25T05:11:04.465Z,1.89
2018-03-25T05:17:04.651Z,1.89
2018-03-25T05:18:04.333Z,1.93
2018-03-25T05:19:04.320Z,1.99
2018-03-25T05:20:04.230Z,1.89
2018-03-25T05:21:04.152Z,1.97
2018-03-25T05:22:04.194Z,1.97
2018-03-25T05:23:04.417Z,1.91
2018-03-25T05:24:04.224Z,1.87
2018-03-25T05:25:04.259Z,1.89
2018-03-25T05:26:04.033Z,1.92
2018-03-25T05:27:04.012Z,1.99
2018-03-25T05:28:03.989Z,1.93
2018-03-25T05:29:04.362Z,1.82
2018-03-25T05:30:03.989Z,1.93
2018-03-25T05:31:03.916Z,1.75
2018-03-25T05:32:04.056Z,1.87
2018-03-25T05:33:04.623Z,1.80
2018-03-25T05:34:03.869Z,1.80
2018-03-25T05:35:04.109Z,1.75
2018-03-25T05:36:03.789Z,1.74
2018-03-25T05:37:03.773Z,1.75
2018-03-25T05:38:03.743Z,1.69
2018-03-25T05:39:03.829Z,1.69
2018-03-25T05:40:03.740Z,1.63
2018-03-25T05:41:03.979Z,1.62
2018-03-25T05:42:03.695Z,1.64
2018-03-25T05:43:03.625Z,1.66
2018-03-25T05:44:03.654Z,1.64
2018-03-25T05:45:03.598Z,1.52
2018-03-25T05:46:03.609Z,1.66
2018-03-25T05:47:04.942Z,1.60
2018-03-25T05:48:03.500Z,1.62
2018-03-25T05:49:03.494Z,1.66
2018-03-25T05:50:03.569Z,1.64
2018-03-25T05:51:03.584Z,1.63
2018-03-25T05:52:03.606Z,1.63
2018-03-25T05:53:03.503Z,1.64
2018-03-25T05:54:04.248Z,1.62
2018-03-25T05:55:03.409Z,1.66
2018-03-25T05:57:03.625Z,1.64
2018-03-25T05:58:03.776Z,1.55
2018-03-25T05:59:03.585Z,1.53
2018-03-25T06:00:03.433Z,1.60
2018-03-25T06:01:03.612Z,1.63
2018-03-25T06:02:03.213Z,1.67
2018-03-25T06:03:03.168Z,1.69
2018-03-25T06:04:03.109Z,1.67
2018-03-25T06:05:03.095Z,1.66
2018-03-25T06:06:03.167Z,1.69
2018-03-25T06:07:03.062Z,1.75
2018-03-25T06:08:03.382Z,1.67
2018-03-25T06:09:03.098Z,1.75
2018-03-25T06:10:03.002Z,1.85
2018-03-25T06:11:03.048Z,1.80
2018-03-25T06:12:02.984Z,1.80
2018-03-25T06:13:02.905Z,1.93
2018-03-25T06:14:02.993Z,1.87
2018-03-25T06:15:03.163Z,1.89
2018-03-25T06:16:03.492Z,1.89
2018-03-25T06:17:02.902Z,2.04
2018-03-25T06:18:02.877Z,2.04
2018-03-25T06:19:02.853Z,2.04
2018-03-25T06:20:02.802Z,2.00
2018-03-25T06:21:02.735Z,2.11
2018-03-25T06:22:03.090Z,2.12
2018-03-25T06:23:02.673Z,2.15
2018-03-25T06:24:02.636Z,2.11
2018-03-25T06:25:02.622Z,2.19
2018-03-25T06:27:02.703Z,2.29
2018-03-25T06:28:02.551Z,2.33
2018-03-25T06:29:02.865Z,2.40
2018-03-25T06:30:02.525Z,2.43
2018-03-25T06:31:02.491Z,2.50
2018-03-25T06:32:02.577Z,2.54
2018-03-25T06:33:03.033Z,2.50
2018-03-25T06:34:02.404Z,2.58
2018-03-25T06:35:02.444Z,2.66
2018-03-25T06:36:02.679Z,2.54
2018-03-25T06:37:02.335Z,2.68
2018-03-25T06:38:02.314Z,2.75
2018-03-25T06:39:02.571Z,2.72
2018-03-25T06:40:02.326Z,2.75
2018-03-25T06:41:02.274Z,2.79
2018-03-25T06:42:02.580Z,2.93
2018-03-25T06:43:02.240Z,2.91
2018-03-25T06:44:02.272Z,2.94
2018-03-25T06:45:02.358Z,2.99
2018-03-25T06:46:02.227Z,3.14
2018-03-25T06:47:02.394Z,3.18
2018-03-25T06:50:02.481Z,3.41
2018-03-25T06:51:02.212Z,3.54
2018-03-25T06:53:01.971Z,3.70
2018-03-25T06:54:01.967Z,3.81
2018-03-25T06:55:02.015Z,3.73
2018-03-25T06:56:02.243Z,3.90
2018-03-25T06:57:01.860Z,4.05
2018-03-25T06:58:01.831Z,4.20
2018-03-25T06:59:01.815Z,4.28
2018-03-25T07:00:01.823Z,4.48
2018-03-25T07:01:02.617Z,4.48
2018-03-25T07:02:02.132Z,4.61
2018-03-25T07:03:01.824Z,4.79
2018-03-25T07:04:01.715Z,4.86
2018-03-25T07:05:01.797Z,4.96
2018-03-25T07:06:01.715Z,5.01
2018-03-25T07:07:01.635Z,5.11
2018-03-25T07:11:02.007Z,5.33
2018-03-25T07:12:01.527Z,5.59
2018-03-25T07:13:01.512Z,5.72
2018-03-25T07:14:01.583Z,5.70
2018-03-25T07:15:01.467Z,5.95
2018-03-25T07:16:01.494Z,6.06
2018-03-25T07:17:01.429Z,6.13
2018-03-25T07:18:01.751Z,6.32
2018-03-25T07:19:01.376Z,6.40
2018-03-25T07:20:01.446Z,6.50
2018-03-25T07:21:01.441Z,6.52
2018-03-25T07:22:01.423Z,6.56
2018-03-25T07:26:01.539Z,6.86
2018-03-25T07:27:01.275Z,6.75
2018-03-25T07:28:01.607Z,6.70
2018-03-25T07:29:01.196Z,6.73
2018-03-25T07:30:01.480Z,6.85
2018-03-25T07:31:01.145Z,6.91
2018-03-25T07:32:01.118Z,7.03
2018-03-25T07:33:01.772Z,7.24
2018-03-25T07:36:01.144Z,7.39
2018-03-25T07:40:01.321Z,7.99
2018-03-25T07:41:00.959Z,8.12
2018-03-25T07:42:00.963Z,8.01
2018-03-25T07:43:00.934Z,8.17
2018-03-25T07:44:00.907Z,8.37
2018-03-25T07:45:00.884Z,8.67
2018-03-25T07:46:00.967Z,8.68
2018-03-25T07:47:00.864Z,8.71
2018-03-25T07:48:00.836Z,8.80
2018-03-25T07:49:00.813Z,8.88
2018-03-25T07:50:00.982Z,8.96
2018-03-25T07:51:00.835Z,8.95
2018-03-25T07:52:00.763Z,9.23
2018-03-25T07:53:01.043Z,9.48
2018-03-25T07:54:00.850Z,9.60
2018-03-25T07:55:00.757Z,9.98
2018-03-25T07:56:00.770Z,9.94
2018-03-25T07:57:00.790Z,9.78
2018-03-25T07:58:00.776Z,10.17
2018-03-25T07:59:00.673Z,10.49
2018-03-25T08:00:00.938Z,11.05
2018-03-25T08:01:00.717Z,11.87
2018-03-25T08:02:00.601Z,12.50
2018-03-25T08:05:00.639Z,12.04
2018-03-25T08:08:00.956Z,12.30
2018-03-25T08:10:00.497Z,12.28
2018-03-25T08:11:00.561Z,12.47
2018-03-25T08:12:00.505Z,12.90
2018-03-25T08:13:00.445Z,12.61
2018-03-25T08:14:00.718Z,12.88
2018-03-25T08:16:00.392Z,12.80
2018-03-25T08:17:00.422Z,12.69
2018-03-25T08:18:00.370Z,13.21
2018-03-25T08:19:00.363Z,13.55
2018-03-25T08:20:00.643Z,13.71
2018-03-25T08:21:00.829Z,13.86
2018-03-25T08:22:00.304Z,13.88
2018-03-25T08:26:00.553Z,14.55
2018-03-25T08:27:00.375Z,14.64
2018-03-25T08:28:00.281Z,14.74
2018-03-25T08:29:00.215Z,15.05
2018-03-25T08:30:00.409Z,15.05
2018-03-25T08:31:00.328Z,14.53
2018-03-25T08:32:00.484Z,14.78
2018-03-25T08:33:00.166Z,14.95
2018-03-25T08:34:00.164Z,14.21
2018-03-25T08:36:00.184Z,13.68
2018-03-25T08:37:00.118Z,14.05
2018-03-25T08:39:00.391Z,14.71
2018-03-25T08:40:00.090Z,14.53
2018-03-25T08:41:00.069Z,14.61
2018-03-25T08:42:00.112Z,14.86
2018-03-25T08:43:00.149Z,14.89
2018-03-25T08:44:00.053Z,14.82
2018-03-25T08:45:00.021Z,14.64
2018-03-25T08:46:00.308Z,14.87
2018-03-25T08:47:00.020Z,14.61
2018-03-25T08:48:00.037Z,14.85
2018-03-25T08:48:59.975Z,14.73
2018-03-25T08:51:00.057Z,14.66
2018-03-25T08:51:59.942Z,14.64
2018-03-25T08:53:00.309Z,14.52
2018-03-25T08:54:00.048Z,14.55
2018-03-25T08:54:59.917Z,14.69
2018-03-25T08:55:59.897Z,14.64
2018-03-25T08:56:59.894Z,15.23
2018-03-25T08:57:59.872Z,15.36
2018-03-25T08:59:00.021Z,15.19
2018-03-25T09:00:00.160Z,15.15
2018-03-25T09:00:59.949Z,15.23
2018-03-25T09:01:59.837Z,15.59
2018-03-25T09:02:59.842Z,16.22
2018-03-25T09:03:59.822Z,15.20
2018-03-25T09:04:59.851Z,15.30
2018-03-25T09:05:59.851Z,15.63
2018-03-25T09:06:59.787Z,15.84
2018-03-25T09:07:59.780Z,16.43
2018-03-25T09:08:59.959Z,16.34
2018-03-25T09:10:59.734Z,16.69
2018-03-25T09:11:59.732Z,16.74
2018-03-25T09:13:00.060Z,16.76
2018-03-25T09:14:00.163Z,16.18
2018-03-25T09:14:59.730Z,16.47
2018-03-25T09:15:59.695Z,15.58
2018-03-25T09:21:00.051Z,15.36
2018-03-25T09:21:59.663Z,15.35
2018-03-25T09:22:59.630Z,15.88
2018-03-25T09:23:59.634Z,15.88
2018-03-25T09:24:59.613Z,15.65
2018-03-25T09:25:59.756Z,14.82
2018-03-25T09:26:59.680Z,14.82
2018-03-25T09:27:59.893Z,15.19
2018-03-25T09:28:59.579Z,15.17
2018-03-25T09:29:59.677Z,15.30
2018-03-25T09:32:59.598Z,14.95
2018-03-25T09:33:59.537Z,15.35
2018-03-25T09:34:59.830Z,15.95
2018-03-25T09:35:59.632Z,16.69
2018-03-25T09:36:59.510Z,16.69
2018-03-25T09:39:59.482Z,17.12
2018-03-25T09:40:59.500Z,17.01
2018-03-25T09:41:59.819Z,17.16
2018-03-25T09:42:59.463Z,16.97
2018-03-25T09:43:59.530Z,17.27
2018-03-25T09:44:59.432Z,18.01
2018-03-25T09:45:59.435Z,17.91
2018-03-25T09:46:59.422Z,17.94
2018-03-25T09:47:59.819Z,16.80
2018-03-25T09:48:59.400Z,16.77
2018-03-25T09:49:59.398Z,17.12
2018-03-25T09:50:59.415Z,16.79
2018-03-25T09:51:59.545Z,16.82
2018-03-25T09:52:59.739Z,16.55
2018-03-25T09:53:59.671Z,16.61
2018-03-25T09:55:59.350Z,17.07
2018-03-25T09:56:59.348Z,16.80
2018-03-25T09:59:59.687Z,17.17
2018-03-25T10:00:59.312Z,16.98
2018-03-25T10:01:59.306Z,16.06
2018-03-25T10:02:59.368Z,16.03
2018-03-25T10:03:59.289Z,16.70
2018-03-25T10:04:59.293Z,17.31
2018-03-25T10:05:59.625Z,17.38
2018-03-25T10:06:59.264Z,16.83
2018-03-25T10:07:59.264Z,17.10
2018-03-25T10:08:59.272Z,17.68
2018-03-25T10:09:59.313Z,17.43
2018-03-25T10:10:59.238Z,17.91
2018-03-25T10:13:02.030Z,18.63
2018-03-25T10:13:59.239Z,18.23
2018-03-25T10:14:59.206Z,17.04
2018-03-25T10:15:59.248Z,16.98
2018-03-25T10:16:59.203Z,16.61
2018-03-25T10:17:59.188Z,17.04
2018-03-25T10:18:59.598Z,17.39
2018-03-25T10:19:59.223Z,16.57
2018-03-25T10:20:59.172Z,16.94
2018-03-25T10:21:59.164Z,17.28
2018-03-25T10:22:59.261Z,16.99
2018-03-25T10:23:59.151Z,17.30
2018-03-25T10:24:59.238Z,17.24
2018-03-25T10:25:59.437Z,17.47
2018-03-25T10:26:59.127Z,18.09
2018-03-25T10:27:59.112Z,17.57
2018-03-25T10:28:59.110Z,18.08
2018-03-25T10:29:59.105Z,17.46
2018-03-25T10:30:59.204Z,17.87
2018-03-25T10:31:59.143Z,17.94
2018-03-25T10:32:59.383Z,18.67
2018-03-25T10:33:59.086Z,18.67
2018-03-25T10:34:59.087Z,18.74
2018-03-25T10:35:59.083Z,18.23
2018-03-25T10:36:59.065Z,18.34
2018-03-25T10:37:59.668Z,18.52
2018-03-25T10:40:59.442Z,17.84
2018-03-25T10:41:59.041Z,18.11
2018-03-25T10:42:59.041Z,18.21
2018-03-25T10:43:59.129Z,18.79
2018-03-25T10:44:59.114Z,18.74
2018-03-25T10:45:59.039Z,18.86
2018-03-25T10:46:59.010Z,18.42
2018-03-25T10:47:59.305Z,19.22
2018-03-25T10:48:59.050Z,19.04
2018-03-25T10:49:58.995Z,19.47
2018-03-25T10:50:58.994Z,19.39
2018-03-25T10:51:59.039Z,18.85
2018-03-25T10:52:58.978Z,18.08
2018-03-25T10:53:58.986Z,18.06
2018-03-25T10:54:59.623Z,18.21
2018-03-25T10:55:59.013Z,18.61
2018-03-25T10:56:59.724Z,18.88
2018-03-25T10:58:58.958Z,18.31
2018-03-25T10:59:59.020Z,18.58
2018-03-25T11:00:59.299Z,18.70
2018-03-25T11:01:58.941Z,19.23
2018-03-25T11:02:59.250Z,19.45
2018-03-25T11:03:59.038Z,18.81
2018-03-25T11:04:58.944Z,19.16
2018-03-25T11:05:58.934Z,18.91
2018-03-25T11:06:59.058Z,18.63
2018-03-25T11:07:59.276Z,18.74
2018-03-25T11:08:58.940Z,17.46
2018-03-25T11:09:58.959Z,18.03
2018-03-25T11:10:58.962Z,18.26
2018-03-25T11:11:58.958Z,18.48
2018-03-25T11:12:58.897Z,18.63
2018-03-25T11:13:59.243Z,18.38
2018-03-25T11:14:58.890Z,18.60
2018-03-25T11:15:58.886Z,18.86
2018-03-25T11:16:58.935Z,18.31
2018-03-25T11:17:58.978Z,18.56
2018-03-25T11:18:59.226Z,18.20
2018-03-25T11:19:58.889Z,17.79
2018-03-25T11:20:58.883Z,16.97
2018-03-25T11:21:58.880Z,16.98
2018-03-25T11:22:58.869Z,17.13
2018-03-25T11:23:58.868Z,16.14
2018-03-25T11:24:58.971Z,16.10
2018-03-25T11:25:59.154Z,17.20
2018-03-25T11:26:58.850Z,18.09
2018-03-25T11:27:58.843Z,18.17
2018-03-25T11:28:58.880Z,18.54
2018-03-25T11:31:59.131Z,18.74
2018-03-25T11:32:58.811Z,18.57
2018-03-25T11:33:58.800Z,18.71
2018-03-25T11:34:59.408Z,18.89
2018-03-25T11:35:58.807Z,18.78
2018-03-25T11:36:58.792Z,18.30
2018-03-25T11:37:59.085Z,18.85
2018-03-25T11:38:58.788Z,18.64
2018-03-25T11:39:58.826Z,18.67
2018-03-25T11:40:58.820Z,18.78
2018-03-25T11:41:58.842Z,18.36
2018-03-25T11:42:58.864Z,18.68
2018-03-25T11:43:59.059Z,18.94
2018-03-25T11:44:58.837Z,19.16
2018-03-25T11:45:58.841Z,18.54
2018-03-25T11:46:58.797Z,18.38
2018-03-25T11:47:58.836Z,18.67
2018-03-25T11:48:58.730Z,18.85
2018-03-25T11:49:59.033Z,18.51
2018-03-25T11:50:58.818Z,19.01
2018-03-25T11:51:58.820Z,18.20
2018-03-25T11:52:58.815Z,18.60
2018-03-25T11:53:58.720Z,17.65
2018-03-25T11:54:58.714Z,17.78
2018-03-25T11:56:59.070Z,16.79
2018-03-25T11:58:58.864Z,15.93
2018-03-25T11:59:58.691Z,15.63
2018-03-25T12:00:58.685Z,15.44
2018-03-25T12:01:58.680Z,15.33
2018-03-25T12:02:58.828Z,15.05
2018-03-25T12:03:58.672Z,14.95
2018-03-25T12:04:58.816Z,14.55
2018-03-25T12:05:58.662Z,14.12
2018-03-25T12:06:59.288Z,14.22
2018-03-25T12:07:58.652Z,14.33
2018-03-25T12:08:58.717Z,14.53
2018-03-25T12:09:58.925Z,14.55
2018-03-25T12:10:58.618Z,15.50
2018-03-25T12:11:58.623Z,16.44
2018-03-25T12:12:58.660Z,17.20
2018-03-25T12:13:58.614Z,17.94
2018-03-25T12:14:58.613Z,17.94
2018-03-25T12:15:58.600Z,17.22
2018-03-25T12:17:58.715Z,18.64
2018-03-25T12:18:58.705Z,18.86
2018-03-25T12:19:58.660Z,19.20
2018-03-25T12:20:58.553Z,19.07
2018-03-25T12:21:58.627Z,18.93
2018-03-25T12:22:58.591Z,18.68
2018-03-25T12:23:58.889Z,18.13
2018-03-25T12:25:58.623Z,17.63
2018-03-25T12:26:58.520Z,17.34
2018-03-25T12:29:58.900Z,16.00
2018-03-25T12:30:58.493Z,15.96
2018-03-25T12:31:58.588Z,15.50
2018-03-25T12:32:58.483Z,14.77
2018-03-25T12:33:58.575Z,14.74
2018-03-25T12:34:58.466Z,14.59
2018-03-25T12:35:58.462Z,14.59
2018-03-25T12:36:58.805Z,14.59
2018-03-25T12:38:58.492Z,14.34
2018-03-25T12:39:58.540Z,14.22
2018-03-25T12:40:58.442Z,13.88
2018-03-25T12:43:58.752Z,14.01
2018-03-25T12:44:58.403Z,14.15
2018-03-25T12:45:58.391Z,14.22
2018-03-25T12:46:58.479Z,14.37
2018-03-25T12:47:58.421Z,14.27
2018-03-25T12:48:58.359Z,14.12
2018-03-25T12:49:58.392Z,13.82
2018-03-25T12:50:58.646Z,13.64
2018-03-25T12:51:58.336Z,14.01
2018-03-25T12:52:58.927Z,14.38
2018-03-25T12:53:58.308Z,15.33
2018-03-25T12:54:58.323Z,15.84
2018-03-25T12:55:58.303Z,16.67
2018-03-25T12:56:58.604Z,17.22
2018-03-25T12:57:58.298Z,16.42
2018-03-25T12:58:58.319Z,15.56
2018-03-25T12:59:58.486Z,15.38
2018-03-25T13:00:58.355Z,15.58
2018-03-25T13:02:58.531Z,17.46
2018-03-25T13:03:58.222Z,17.86
2018-03-25T13:04:58.268Z,16.90
2018-03-25T13:05:58.212Z,15.60
2018-03-25T13:06:58.194Z,14.95
2018-03-25T13:07:58.189Z,14.71
2018-03-25T13:08:58.475Z,15.07
2018-03-25T13:09:58.167Z,15.25
2018-03-25T13:10:58.261Z,15.10
2018-03-25T13:11:58.204Z,14.99
2018-03-25T13:12:58.149Z,14.96
2018-03-25T13:13:58.146Z,14.90
2018-03-25T13:14:58.544Z,14.55
2018-03-25T13:15:58.124Z,14.64
2018-03-25T13:16:58.124Z,14.63
2018-03-25T13:17:58.194Z,14.61
2018-03-25T13:18:58.096Z,14.44
2018-03-25T13:19:58.095Z,14.48
2018-03-25T13:20:58.778Z,14.30
2018-03-25T13:21:58.076Z,14.11
2018-03-25T13:24:58.145Z,14.13
2018-03-25T13:25:58.074Z,13.98
2018-03-25T13:26:58.375Z,13.79
2018-03-25T13:27:58.002Z,13.88
2018-03-25T13:28:58.009Z,14.12
2018-03-25T13:29:57.982Z,14.28
2018-03-25T13:30:58.034Z,14.49
2018-03-25T13:31:57.979Z,14.45
2018-03-25T13:32:57.987Z,14.36
2018-03-25T13:33:58.259Z,14.13
2018-03-25T13:34:57.934Z,14.15
2018-03-25T13:35:57.927Z,14.15
2018-03-25T13:36:58.208Z,14.26
2018-03-25T13:37:57.905Z,14.23
2018-03-25T13:38:58.204Z,14.51
2018-03-25T13:39:57.953Z,14.55
2018-03-25T13:40:58.288Z,14.71
2018-03-25T13:41:57.971Z,14.58
2018-03-25T13:42:57.851Z,14.66
2018-03-25T13:43:57.858Z,15.10
2018-03-25T13:44:57.943Z,15.95
2018-03-25T13:45:57.818Z,16.74
2018-03-25T13:46:57.823Z,17.30
2018-03-25T13:47:58.100Z,17.13
2018-03-25T13:48:57.801Z,17.56
2018-03-25T13:49:58.142Z,15.73
2018-03-25T13:50:57.786Z,15.08
2018-03-25T13:51:57.865Z,16.02
2018-03-25T13:52:57.765Z,17.02
2018-03-25T13:53:57.771Z,17.43
2018-03-25T13:54:58.049Z,17.59
2018-03-25T13:55:57.787Z,17.73
2018-03-25T13:56:57.730Z,17.35
2018-03-25T13:57:57.725Z,17.01
2018-03-25T13:58:57.717Z,16.37
2018-03-25T13:59:57.709Z,16.17
2018-03-25T14:00:57.686Z,15.95
2018-03-25T14:01:58.039Z,15.47
2018-03-25T14:02:57.678Z,14.93
2018-03-25T14:03:57.818Z,14.19
2018-03-25T14:04:57.655Z,14.13
2018-03-25T14:05:57.651Z,14.12
2018-03-25T14:06:57.651Z,14.15
2018-03-25T14:07:57.644Z,13.82
2018-03-25T14:08:57.931Z,13.63
2018-03-25T14:09:57.868Z,13.53
2018-03-25T14:10:57.619Z,13.53
2018-03-25T14:12:57.655Z,13.61
2018-03-25T14:15:57.911Z,13.39
2018-03-25T14:16:57.816Z,13.39
2018-03-25T14:17:57.535Z,13.43
2018-03-25T14:19:57.523Z,13.16
2018-03-25T14:20:57.505Z,13.20
2018-03-25T14:21:57.544Z,13.20
2018-03-25T14:22:57.845Z,13.09
2018-03-25T14:23:57.483Z,13.14
2018-03-25T14:24:57.474Z,12.99
2018-03-25T14:25:57.454Z,12.99
2018-03-25T14:26:57.455Z,13.05
2018-03-25T14:27:57.541Z,13.02
2018-03-25T14:28:57.803Z,13.08
2018-03-25T14:29:57.486Z,13.02
2018-03-25T14:30:57.421Z,13.21
2018-03-25T14:31:57.413Z,13.01
2018-03-25T14:32:57.749Z,13.14
2018-03-25T14:33:57.452Z,13.60
2018-03-25T14:34:57.700Z,14.45
2018-03-25T14:35:57.367Z,15.15
2018-03-25T14:36:57.369Z,15.59
2018-03-25T14:37:57.345Z,16.13
2018-03-25T14:38:57.387Z,16.43
2018-03-25T14:39:57.330Z,16.77
2018-03-25T14:40:57.618Z,17.09
2018-03-25T14:41:57.312Z,17.38
2018-03-25T14:42:57.310Z,17.45
2018-03-25T14:43:57.284Z,17.02
2018-03-25T14:44:57.319Z,16.79
2018-03-25T14:45:57.266Z,16.49
2018-03-25T14:46:57.663Z,16.22
2018-03-25T14:47:57.255Z,16.49
2018-03-25T14:48:57.243Z,16.97
2018-03-25T14:49:57.233Z,17.04
2018-03-25T14:50:57.834Z,15.98
2018-03-25T14:51:57.220Z,15.41
2018-03-25T14:52:57.215Z,15.25
2018-03-25T14:53:57.499Z,14.79
2018-03-25T14:54:57.187Z,14.45
2018-03-25T14:55:57.179Z,13.82